createdAt,value
2017-05-29T00:01:28.720Z,69.72
2017-05-29T00:03:56.244Z,69.61
2017-05-29T00:06:23.776Z,68.64
2017-05-29T00:08:51.335Z,69.50
2017-05-29T00:11:18.880Z,69.87
2017-05-29T00:13:46.476Z,70.26
2017-05-29T00:16:13.995Z,70.68
2017-05-29T00:18:41.536Z,70.29
2017-05-29T00:21:09.111Z,69.85
2017-05-29T00:23:36.633Z,69.57
2017-05-29T00:26:04.200Z,69.82
2017-05-29T00:28:31.772Z,70.50
2017-05-29T00:30:59.320Z,69.40
2017-05-29T00:33:26.874Z,68.36
2017-05-29T00:35:54.410Z,67.92
2017-05-29T00:38:22.339Z,68.02
2017-05-29T00:40:49.860Z,69.85
2017-05-29T00:43:17.392Z,71.12
2017-05-29T00:45:44.951Z,71.44
2017-05-29T00:48:12.496Z,71.99
2017-05-29T00:50:40.083Z,71.96
2017-05-29T00:53:07.655Z,71.40
2017-05-29T00:55:35.539Z,70.93
2017-05-29T00:58:03.072Z,70.09
2017-05-29T01:00:30.592Z,69.06
2017-05-29T01:02:58.189Z,68.52
2017-05-29T01:05:25.707Z,70.49
2017-05-29T01:07:53.256Z,71.76
2017-05-29T01:10:20.788Z,71.92
2017-05-29T01:12:48.352Z,71.20
2017-05-29T01:15:15.872Z,70.08
2017-05-29T01:17:43.459Z,69.31
2017-05-29T01:20:11.136Z,69.29
2017-05-29T01:22:38.671Z,69.78
2017-05-29T01:25:06.327Z,69.05
2017-05-29T01:27:33.936Z,71.11
2017-05-29T01:30:01.491Z,71.45
2017-05-29T01:32:29.120Z,71.96
2017-05-29T01:34:56.697Z,71.35
2017-05-29T01:37:24.348Z,70.13
2017-05-29T01:39:51.879Z,69.55
2017-05-29T01:42:19.459Z,69.50
2017-05-29T01:44:46.971Z,70.45
2017-05-29T01:47:14.492Z,71.36
2017-05-29T01:49:42.054Z,70.55
2017-05-29T01:52:09.571Z,70.60
2017-05-29T01:54:37.119Z,69.96
2017-05-29T01:57:04.651Z,70.17
2017-05-29T01:59:32.233Z,71.99
2017-05-29T02:01:59.769Z,71.73
2017-05-29T02:04:27.293Z,71.06
2017-05-29T02:06:54.848Z,71.59
2017-05-29T02:09:22.379Z,70.87
2017-05-29T02:11:49.931Z,71.17
2017-05-29T02:14:17.462Z,72.70
2017-05-29T02:16:45.025Z,73.78
2017-05-29T02:19:12.553Z,74.59
2017-05-29T02:21:40.081Z,75.30
2017-05-29T02:24:07.646Z,75.38
2017-05-29T02:26:35.170Z,75.31
2017-05-29T02:29:02.792Z,74.32
2017-05-29T02:31:30.346Z,73.12
2017-05-29T02:33:57.929Z,72.50
2017-05-29T02:36:25.488Z,71.87
2017-05-29T02:38:53.075Z,72.31
2017-05-29T02:41:20.635Z,71.81
2017-05-29T02:43:48.161Z,71.66
2017-05-29T02:46:15.740Z,72.02
2017-05-29T02:48:43.300Z,71.63
2017-05-29T02:51:10.894Z,71.48
2017-05-29T02:53:38.472Z,71.35
2017-05-29T02:56:06.007Z,71.42
2017-05-29T02:58:33.572Z,71.84
2017-05-29T03:01:01.116Z,71.78
2017-05-29T03:03:28.690Z,72.07
2017-05-29T03:05:56.220Z,72.01
2017-05-29T03:08:23.739Z,72.00
2017-05-29T03:10:51.308Z,72.19
2017-05-29T03:13:18.853Z,71.72
2017-05-29T03:15:46.403Z,71.91
2017-05-29T03:18:13.939Z,72.04
2017-05-29T03:20:41.508Z,72.03
2017-05-29T03:23:09.074Z,72.38
2017-05-29T03:25:36.627Z,72.43
2017-05-29T03:28:04.192Z,74.07
2017-05-29T03:30:31.718Z,75.00
2017-05-29T03:32:59.276Z,75.56
2017-05-29T03:35:26.808Z,76.19
2017-05-29T03:37:54.471Z,76.56
2017-05-29T03:40:22.100Z,76.38
2017-05-29T03:42:49.629Z,75.96
2017-05-29T03:45:17.187Z,74.54
2017-05-29T03:47:44.720Z,73.46
2017-05-29T03:50:12.272Z,73.93
2017-05-29T03:52:39.799Z,74.32
2017-05-29T03:55:07.373Z,75.20
2017-05-29T03:57:34.899Z,75.56
2017-05-29T04:00:02.506Z,76.09
2017-05-29T04:02:30.097Z,75.63
2017-05-29T04:04:57.742Z,74.31
2017-05-29T04:07:25.287Z,73.69
2017-05-29T04:09:52.896Z,73.71
2017-05-29T04:12:20.447Z,72.99
2017-05-29T04:14:47.990Z,72.93
2017-05-29T04:17:15.632Z,72.77
2017-05-29T04:19:43.158Z,73.02
2017-05-29T04:22:10.746Z,73.34
2017-05-29T04:24:38.281Z,72.75
2017-05-29T04:27:05.807Z,72.74
2017-05-29T04:29:33.359Z,73.02
2017-05-29T04:32:00.882Z,73.62
2017-05-29T04:34:28.449Z,73.19
2017-05-29T04:36:56.003Z,74.24
2017-05-29T04:39:23.611Z,72.95
2017-05-29T04:41:51.189Z,74.68
2017-05-29T04:44:18.720Z,75.65
2017-05-29T04:46:46.288Z,75.05
2017-05-29T04:49:13.828Z,74.70
2017-05-29T04:51:41.395Z,73.67
2017-05-29T04:54:08.951Z,72.88
2017-05-29T04:56:36.491Z,72.66
2017-05-29T04:59:04.055Z,72.36
2017-05-29T05:01:31.592Z,71.91
2017-05-29T05:03:59.159Z,71.74
2017-05-29T05:06:26.723Z,71.16
2017-05-29T05:08:54.259Z,71.14
2017-05-29T05:11:21.903Z,70.90
2017-05-29T05:13:49.447Z,71.23
2017-05-29T05:16:16.992Z,71.11
2017-05-29T05:18:44.536Z,70.89
2017-05-29T05:21:12.063Z,70.89
2017-05-29T05:23:39.617Z,71.14
2017-05-29T05:26:07.207Z,70.46
2017-05-29T05:28:34.877Z,70.32
2017-05-29T05:31:02.477Z,70.32
2017-05-29T05:33:30.691Z,70.33
2017-05-29T05:35:58.224Z,69.86
2017-05-29T05:38:25.747Z,69.42
2017-05-29T05:40:53.314Z,69.44
2017-05-29T05:43:20.835Z,69.45
2017-05-29T05:45:48.411Z,69.41
2017-05-29T05:48:15.935Z,69.26
2017-05-29T05:50:43.519Z,69.21
2017-05-29T05:53:11.076Z,69.01
2017-05-29T05:55:38.588Z,68.70
2017-05-29T05:58:06.147Z,68.16
2017-05-29T06:00:33.663Z,67.74
2017-05-29T06:03:01.207Z,67.33
2017-05-29T06:05:28.725Z,68.11
2017-05-29T06:07:56.286Z,68.12
2017-05-29T06:10:23.832Z,68.31
2017-05-29T06:12:51.419Z,68.07
2017-05-29T06:15:19.023Z,67.45
2017-05-29T06:17:46.600Z,66.89
2017-05-29T06:20:14.219Z,67.06
2017-05-29T06:22:41.750Z,67.24
2017-05-29T06:25:09.303Z,66.82
2017-05-29T06:27:38.336Z,66.73
2017-05-29T06:30:06.259Z,66.23
2017-05-29T06:35:10.835Z,65.78
2017-05-29T06:37:38.364Z,65.56
2017-05-29T06:40:05.884Z,65.40
2017-05-29T06:42:33.423Z,64.96
2017-05-29T06:45:00.947Z,65.21
2017-05-29T06:47:28.584Z,65.21
2017-05-29T06:49:56.109Z,65.33
2017-05-29T06:52:23.623Z,65.28
2017-05-29T06:54:51.171Z,65.58
2017-05-29T06:57:18.696Z,65.34
2017-05-29T06:59:46.240Z,65.07
2017-05-29T07:02:13.750Z,64.85
2017-05-29T07:04:41.311Z,64.59
2017-05-29T07:07:08.842Z,64.86
2017-05-29T07:09:36.430Z,64.79
2017-05-29T07:12:03.983Z,64.82
2017-05-29T07:14:31.524Z,64.96
2017-05-29T07:16:59.074Z,64.69
2017-05-29T07:19:26.587Z,64.29
2017-05-29T07:21:54.174Z,63.94
2017-05-29T07:24:21.711Z,63.69
2017-05-29T07:26:49.231Z,63.72
2017-05-29T07:29:16.784Z,63.25
2017-05-29T07:31:44.299Z,62.96
2017-05-29T07:34:11.847Z,62.64
2017-05-29T07:36:39.383Z,62.43
2017-05-29T07:39:06.987Z,62.46
2017-05-29T07:41:34.524Z,61.72
2017-05-29T07:44:02.145Z,61.62
2017-05-29T07:46:29.692Z,61.98
2017-05-29T07:48:57.206Z,61.81
2017-05-29T07:51:24.761Z,61.74
2017-05-29T07:53:52.283Z,60.91
2017-05-29T07:56:19.812Z,60.85
2017-05-29T07:58:47.379Z,60.77
2017-05-29T08:01:14.893Z,61.09
2017-05-29T08:03:42.484Z,60.69
2017-05-29T08:06:09.992Z,61.05
2017-05-29T08:08:37.580Z,61.11
2017-05-29T08:11:05.113Z,60.46
2017-05-29T08:13:32.628Z,60.17
2017-05-29T08:16:00.201Z,59.81
2017-05-29T08:18:27.800Z,58.34
2017-05-29T08:20:55.331Z,58.77
2017-05-29T08:23:22.823Z,58.61
2017-05-29T08:25:50.372Z,58.27
2017-05-29T08:28:17.888Z,57.74
2017-05-29T08:30:45.462Z,58.68
2017-05-29T08:33:12.987Z,58.02
2017-05-29T08:35:40.515Z,58.14
2017-05-29T08:38:08.093Z,57.72
2017-05-29T08:40:35.608Z,58.07
2017-05-29T08:43:03.491Z,57.74
2017-05-29T08:45:30.995Z,58.28
2017-05-29T08:47:58.511Z,56.78
2017-05-29T08:50:26.059Z,57.35
2017-05-29T08:52:53.665Z,56.19
2017-05-29T08:55:21.280Z,56.13
2017-05-29T08:57:48.800Z,54.49
2017-05-29T09:00:16.667Z,55.23
2017-05-29T09:02:44.194Z,55.12
2017-05-29T09:05:12.177Z,54.88
2017-05-29T09:07:39.736Z,54.08
2017-05-29T09:10:07.296Z,53.68
2017-05-29T09:12:34.877Z,53.02
2017-05-29T09:15:02.391Z,52.02
2017-05-29T09:17:29.983Z,52.17
2017-05-29T09:19:57.532Z,53.14
2017-05-29T09:22:25.082Z,52.65
2017-05-29T09:24:52.631Z,51.71
2017-05-29T09:27:20.167Z,49.77
2017-05-29T09:29:47.770Z,47.80
2017-05-29T09:32:15.308Z,48.32
2017-05-29T09:34:42.832Z,47.13
2017-05-29T09:37:10.397Z,47.13
2017-05-29T09:39:37.931Z,45.96
2017-05-29T09:42:05.501Z,46.46
2017-05-29T09:44:33.026Z,47.18
2017-05-29T09:47:00.598Z,46.68
2017-05-29T09:49:28.118Z,47.86
2017-05-29T09:51:55.668Z,46.57
2017-05-29T09:54:23.218Z,46.84
2017-05-29T09:56:50.755Z,45.63
2017-05-29T09:59:18.400Z,45.61
2017-05-29T10:01:45.928Z,43.44
2017-05-29T10:04:13.447Z,42.64
2017-05-29T10:06:41.008Z,42.19
2017-05-29T10:09:08.528Z,43.67
2017-05-29T10:11:36.136Z,42.78
2017-05-29T10:14:03.673Z,41.34
2017-05-29T10:16:31.235Z,41.58
2017-05-29T10:18:58.787Z,42.05
2017-05-29T10:21:26.311Z,42.35
2017-05-29T10:23:53.884Z,42.76
2017-05-29T10:26:21.391Z,42.61
2017-05-29T10:28:48.920Z,42.58
2017-05-29T10:31:16.467Z,41.88
2017-05-29T10:33:44.003Z,41.32
2017-05-29T10:36:11.567Z,41.22
2017-05-29T10:38:39.090Z,42.04
2017-05-29T10:41:06.641Z,40.48
2017-05-29T10:43:34.817Z,40.37
2017-05-29T10:46:02.382Z,41.17
2017-05-29T10:48:29.932Z,39.06
2017-05-29T10:50:57.494Z,37.11
2017-05-29T10:53:25.051Z,36.50
2017-05-29T10:55:52.591Z,37.07
2017-05-29T10:58:20.483Z,37.38
2017-05-29T11:00:48.075Z,37.98
2017-05-29T11:03:15.638Z,37.70
2017-05-29T11:05:43.316Z,37.94
2017-05-29T11:08:10.875Z,37.53
2017-05-29T11:10:38.505Z,37.22
2017-05-29T11:13:06.104Z,37.35
2017-05-29T11:15:33.687Z,37.36
2017-05-29T11:18:01.259Z,36.86
2017-05-29T11:20:28.805Z,37.68
2017-05-29T11:22:56.387Z,37.17
2017-05-29T11:25:23.904Z,36.86
2017-05-29T11:27:51.431Z,37.72
2017-05-29T11:30:19.002Z,36.96
2017-05-29T11:32:46.543Z,36.56
2017-05-29T11:35:14.095Z,36.44
2017-05-29T11:37:41.620Z,36.68
2017-05-29T11:40:09.159Z,36.04
2017-05-29T11:42:36.692Z,36.30
2017-05-29T11:45:04.233Z,36.72
2017-05-29T11:47:31.751Z,34.90
2017-05-29T11:49:59.312Z,34.55
2017-05-29T11:52:26.833Z,34.63
2017-05-29T11:54:54.352Z,34.44
2017-05-29T11:57:21.908Z,34.14
2017-05-29T11:59:49.426Z,33.90
2017-05-29T12:02:16.987Z,32.23
2017-05-29T12:04:44.607Z,32.15
2017-05-29T12:07:12.164Z,29.89
2017-05-29T12:09:39.704Z,29.75
2017-05-29T12:12:07.280Z,29.88
2017-05-29T12:14:34.876Z,30.33
2017-05-29T12:17:02.395Z,29.98
2017-05-29T12:19:29.985Z,30.72
2017-05-29T12:21:57.495Z,30.41
2017-05-29T12:24:25.032Z,29.33
2017-05-29T12:26:52.602Z,29.38
2017-05-29T12:29:20.194Z,29.77
2017-05-29T12:31:47.740Z,29.75
2017-05-29T12:34:15.326Z,26.74
2017-05-29T12:36:42.863Z,25.55
2017-05-29T12:39:10.389Z,26.62
2017-05-29T12:41:37.935Z,26.96
2017-05-29T12:44:05.470Z,27.43
2017-05-29T12:46:33.019Z,26.45
2017-05-29T12:49:00.556Z,26.30
2017-05-29T12:51:28.133Z,27.09
2017-05-29T12:53:55.663Z,26.93
2017-05-29T12:56:23.183Z,27.11
2017-05-29T12:58:50.738Z,27.41
2017-05-29T13:01:18.312Z,27.23
2017-05-29T13:03:45.847Z,26.17
2017-05-29T13:06:13.404Z,27.09
2017-05-29T13:08:40.956Z,27.64
2017-05-29T13:11:08.494Z,27.81
2017-05-29T13:13:36.111Z,27.75
2017-05-29T13:16:03.644Z,27.09
2017-05-29T13:18:31.173Z,28.33
2017-05-29T13:20:58.734Z,27.92
2017-05-29T13:23:26.267Z,28.53
2017-05-29T13:25:53.815Z,27.04
2017-05-29T13:28:21.332Z,28.31
2017-05-29T13:30:48.886Z,25.76
2017-05-29T13:33:16.416Z,26.04
2017-05-29T13:35:43.987Z,26.55
2017-05-29T13:38:11.503Z,26.98
2017-05-29T13:40:39.052Z,26.36
2017-05-29T13:43:06.569Z,27.15
2017-05-29T13:45:34.115Z,26.84
2017-05-29T13:48:01.635Z,26.40
2017-05-29T13:50:29.205Z,26.75
2017-05-29T13:52:56.732Z,27.17
2017-05-29T13:55:24.300Z,26.21
2017-05-29T13:57:51.826Z,26.19
2017-05-29T14:00:19.358Z,26.19
2017-05-29T14:02:46.909Z,26.81
2017-05-29T14:05:14.427Z,22.93
2017-05-29T14:07:41.996Z,23.49
2017-05-29T14:10:09.520Z,24.47
2017-05-29T14:12:37.058Z,23.97
2017-05-29T14:15:04.656Z,24.92
2017-05-29T14:17:32.184Z,25.29
2017-05-29T14:19:59.699Z,23.75
2017-05-29T14:22:27.250Z,23.79
2017-05-29T14:24:54.773Z,23.73
2017-05-29T14:27:22.319Z,22.44
2017-05-29T14:29:49.880Z,22.39
2017-05-29T14:32:17.432Z,22.51
2017-05-29T14:34:44.955Z,23.10
2017-05-29T14:37:12.515Z,22.89
2017-05-29T14:39:40.057Z,22.66
2017-05-29T14:42:07.655Z,22.54
2017-05-29T14:44:35.187Z,23.34
2017-05-29T14:47:02.711Z,22.99
2017-05-29T14:49:30.271Z,23.37
2017-05-29T14:51:57.791Z,23.01
2017-05-29T14:54:25.345Z,23.17
2017-05-29T14:56:52.867Z,22.66
2017-05-29T14:59:20.784Z,21.68
2017-05-29T15:01:48.304Z,22.04
2017-05-29T15:04:15.816Z,21.53
2017-05-29T15:06:43.375Z,22.19
2017-05-29T15:09:10.915Z,23.31
2017-05-29T15:11:38.520Z,23.78
2017-05-29T15:14:06.031Z,24.06
2017-05-29T15:16:33.586Z,24.11
2017-05-29T15:19:01.117Z,25.22
2017-05-29T15:21:28.643Z,25.01
2017-05-29T15:23:56.188Z,25.54
2017-05-29T15:26:23.731Z,25.43
2017-05-29T15:28:51.300Z,25.91
2017-05-29T15:31:18.823Z,26.16
2017-05-29T15:33:46.357Z,23.73
2017-05-29T15:36:13.916Z,23.83
2017-05-29T15:38:41.442Z,24.07
2017-05-29T15:41:09.021Z,24.36
2017-05-29T15:43:36.580Z,25.85
2017-05-29T15:46:04.172Z,26.67
2017-05-29T15:48:31.720Z,27.08
2017-05-29T15:50:59.297Z,27.64
2017-05-29T15:53:26.824Z,27.88
2017-05-29T15:55:54.397Z,28.35
2017-05-29T15:58:21.916Z,28.12
2017-05-29T16:00:49.468Z,29.24
2017-05-29T16:03:17.021Z,29.51
2017-05-29T16:05:44.541Z,30.34
2017-05-29T16:08:12.101Z,30.71
2017-05-29T16:10:39.666Z,31.17
2017-05-29T16:13:07.211Z,31.27
2017-05-29T16:15:34.880Z,31.50
2017-05-29T16:18:02.422Z,31.73
2017-05-29T16:20:29.955Z,31.10
2017-05-29T16:22:57.556Z,30.88
2017-05-29T16:25:25.089Z,30.57
2017-05-29T16:27:52.612Z,30.54
2017-05-29T16:30:20.169Z,30.23
2017-05-29T16:32:47.687Z,30.43
2017-05-29T16:35:15.225Z,30.73
2017-05-29T16:37:42.755Z,31.81
2017-05-29T16:40:10.316Z,32.35
2017-05-29T16:42:37.860Z,33.01
2017-05-29T16:45:05.455Z,33.48
2017-05-29T16:47:33.041Z,33.94
2017-05-29T16:50:00.722Z,34.73
2017-05-29T16:52:28.288Z,35.44
2017-05-29T16:54:55.805Z,35.67
2017-05-29T16:57:23.366Z,36.02
2017-05-29T16:59:50.903Z,36.23
2017-05-29T17:02:18.504Z,35.99
2017-05-29T17:04:46.048Z,36.06
2017-05-29T17:07:13.628Z,36.02
2017-05-29T17:09:41.184Z,36.18
2017-05-29T17:12:08.772Z,36.57
2017-05-29T17:14:36.419Z,36.79
2017-05-29T17:17:03.954Z,36.69
2017-05-29T17:19:31.540Z,36.60
2017-05-29T17:21:59.140Z,36.49
2017-05-29T17:24:26.719Z,36.79
2017-05-29T17:26:54.323Z,37.19
2017-05-29T17:29:21.874Z,37.45
2017-05-29T17:31:49.404Z,37.31
2017-05-29T17:34:17.066Z,37.72
2017-05-29T17:36:44.602Z,38.09
2017-05-29T17:39:12.154Z,37.71
2017-05-29T17:41:39.696Z,38.33
2017-05-29T17:44:07.346Z,38.09
2017-05-29T17:46:34.916Z,38.80
2017-05-29T17:49:02.592Z,38.51
2017-05-29T17:51:30.167Z,38.83
2017-05-29T17:53:57.708Z,39.31
2017-05-29T17:56:25.344Z,42.32
2017-05-29T17:58:52.912Z,42.92
2017-05-29T18:01:20.553Z,44.37
2017-05-29T18:03:48.111Z,46.45
2017-05-29T18:06:15.731Z,48.73
2017-05-29T18:08:43.276Z,49.47
2017-05-29T18:11:10.835Z,50.01
2017-05-29T18:13:38.371Z,50.53
2017-05-29T18:16:05.943Z,51.91
2017-05-29T18:18:33.488Z,52.47
2017-05-29T18:21:01.144Z,52.80
2017-05-29T18:23:28.675Z,52.75
2017-05-29T18:25:56.219Z,56.58
2017-05-29T18:28:23.795Z,58.86
2017-05-29T18:30:51.330Z,58.84
2017-05-29T18:33:18.891Z,59.46
2017-05-29T18:35:46.413Z,58.88
2017-05-29T18:38:13.985Z,58.09
2017-05-29T18:40:41.532Z,57.61
2017-05-29T18:43:09.115Z,57.53
2017-05-29T18:45:36.675Z,56.85
2017-05-29T18:48:04.195Z,56.78
2017-05-29T18:50:31.798Z,56.53
2017-05-29T18:52:59.373Z,56.06
2017-05-29T18:55:26.951Z,55.78
2017-05-29T18:57:54.491Z,55.58
2017-05-29T19:00:22.066Z,56.36
2017-05-29T19:02:49.623Z,56.53
2017-05-29T19:05:17.163Z,56.64
2017-05-29T19:07:44.725Z,56.85
2017-05-29T19:10:12.265Z,58.54
2017-05-29T19:12:39.813Z,58.71
2017-05-29T19:15:07.332Z,57.41
2017-05-29T19:17:34.933Z,56.96
2017-05-29T19:20:02.457Z,57.00
2017-05-29T19:22:30.009Z,56.79
2017-05-29T19:24:57.593Z,56.57
2017-05-29T19:27:25.130Z,56.32
2017-05-29T19:29:52.731Z,56.45
2017-05-29T19:32:20.262Z,58.05
2017-05-29T19:34:47.890Z,58.78
2017-05-29T19:37:15.449Z,58.92
2017-05-29T19:39:42.982Z,58.88
2017-05-29T19:42:10.542Z,59.04
2017-05-29T19:44:38.096Z,58.83
2017-05-29T19:47:05.669Z,58.23
2017-05-29T19:49:33.184Z,58.19
2017-05-29T19:52:00.772Z,58.70
2017-05-29T19:54:28.337Z,57.92
2017-05-29T19:56:55.907Z,56.95
2017-05-29T19:59:23.470Z,56.63
2017-05-29T20:01:50.999Z,56.82
2017-05-29T20:04:18.573Z,56.40
2017-05-29T20:06:46.112Z,56.33
2017-05-29T20:09:13.800Z,56.98
2017-05-29T20:11:41.437Z,57.76
2017-05-29T20:14:09.012Z,57.89
2017-05-29T20:16:36.615Z,57.49
2017-05-29T20:19:04.227Z,57.92
2017-05-29T20:21:31.796Z,58.50
2017-05-29T20:23:59.556Z,59.13
2017-05-29T20:26:27.130Z,59.30
2017-05-29T20:28:54.775Z,60.22
2017-05-29T20:31:22.352Z,60.82
2017-05-29T20:33:49.879Z,60.55
2017-05-29T20:36:17.428Z,62.55
2017-05-29T20:38:44.991Z,62.70
2017-05-29T20:41:12.524Z,62.38
2017-05-29T20:43:40.103Z,62.23
2017-05-29T20:46:07.656Z,62.17
2017-05-29T20:48:35.285Z,62.57
2017-05-29T20:51:02.810Z,62.59
2017-05-29T20:53:30.412Z,62.37
2017-05-29T20:55:57.975Z,62.78
2017-05-29T20:58:25.569Z,62.87
2017-05-29T21:00:53.204Z,62.82
2017-05-29T21:03:20.755Z,62.73
2017-05-29T21:05:48.369Z,61.86
2017-05-29T21:08:15.919Z,61.67
2017-05-29T21:10:43.448Z,61.68
2017-05-29T21:13:11.003Z,61.34
2017-05-29T21:15:38.515Z,60.77
2017-05-29T21:18:06.071Z,61.01
2017-05-29T21:20:33.602Z,60.67
2017-05-29T21:23:01.196Z,61.28
2017-05-29T21:25:28.856Z,61.16
2017-05-29T21:27:56.415Z,61.99
2017-05-29T21:30:23.975Z,61.81
2017-05-29T21:32:51.546Z,62.38
2017-05-29T21:35:19.080Z,63.18
2017-05-29T21:37:46.600Z,63.47
2017-05-29T21:40:14.145Z,63.49
2017-05-29T21:42:41.712Z,64.32
2017-05-29T21:45:09.266Z,63.92
2017-05-29T21:47:36.784Z,64.11
2017-05-29T21:50:04.350Z,64.00
2017-05-29T21:52:31.872Z,64.04
2017-05-29T21:54:59.419Z,64.58
2017-05-29T21:57:26.953Z,65.16
2017-05-29T21:59:54.515Z,65.33
2017-05-29T22:02:22.026Z,65.38
2017-05-29T22:04:49.753Z,65.78
2017-05-29T22:07:17.274Z,64.86
2017-05-29T22:09:44.871Z,64.63
2017-05-29T22:12:12.419Z,66.00
2017-05-29T22:14:39.947Z,66.73
2017-05-29T22:17:07.489Z,66.37
2017-05-29T22:19:35.022Z,67.31
2017-05-29T22:22:02.580Z,66.79
2017-05-29T22:24:30.123Z,67.16
2017-05-29T22:26:57.796Z,67.91
2017-05-29T22:29:25.333Z,67.00
2017-05-29T22:31:52.936Z,66.76
2017-05-29T22:34:20.581Z,66.63
2017-05-29T22:36:48.142Z,66.61
2017-05-29T22:39:15.737Z,67.14
2017-05-29T22:41:43.331Z,67.09
2017-05-29T22:44:10.879Z,66.96
2017-05-29T22:46:38.444Z,67.40
2017-05-29T22:49:06.036Z,68.32
2017-05-29T22:51:33.612Z,68.13
2017-05-29T22:54:01.166Z,68.51
2017-05-29T22:56:28.730Z,68.81
2017-05-29T22:58:56.264Z,68.81
2017-05-29T23:01:23.826Z,68.90
2017-05-29T23:03:51.369Z,69.63
2017-05-29T23:06:18.939Z,69.31
2017-05-29T23:08:46.481Z,69.54
2017-05-29T23:11:14.386Z,69.42
2017-05-29T23:13:41.913Z,68.97
2017-05-29T23:16:09.461Z,68.86
2017-05-29T23:18:37.075Z,68.46
2017-05-29T23:21:04.649Z,68.17
2017-05-29T23:23:32.179Z,68.15
2017-05-29T23:25:59.700Z,68.20
2017-05-29T23:28:27.262Z,68.40
2017-05-29T23:30:54.791Z,69.59
2017-05-29T23:33:22.375Z,69.62
2017-05-29T23:35:49.908Z,70.84
2017-05-29T23:38:17.537Z,72.53
2017-05-29T23:40:45.076Z,75.15
2017-05-29T23:43:12.673Z,78.89
2017-05-29T23:45:40.207Z,78.34
2017-05-29T23:48:07.754Z,80.21
2017-05-29T23:50:35.303Z,81.79
2017-05-29T23:53:02.833Z,84.15
2017-05-29T23:55:30.387Z,83.01
2017-05-29T23:57:57.957Z,83.48
